sensor_id;sensor_type;location;lat;lon;timestamp;P1;durP1;ratioP1;P2;durP2;ratioP2
20229;SDS011;12195;55.790;37.572;2023-05-07T00:00:49;6.30;;;2.60;;
20229;SDS011;12195;55.790;37.572;2023-05-07T00:03:21;3.72;;;2.47;;
20229;SDS011;12195;55.790;37.572;2023-05-07T00:05:53;3.70;;;2.60;;
20229;SDS011;12195;55.790;37.572;2023-05-07T00:08:26;4.72;;;2.33;;
20229;SDS011;12195;55.790;37.572;2023-05-07T00:10:58;4.92;;;3.10;;
20229;SDS011;12195;55.790;37.572;2023-05-07T00:13:30;3.00;;;2.33;;
20229;SDS011;12195;55.790;37.572;2023-05-07T00:18:35;4.17;;;2.55;;
20229;SDS011;12195;55.790;37.572;2023-05-07T00:21:07;7.28;;;2.70;;
20229;SDS011;12195;55.790;37.572;2023-05-07T00:23:40;4.78;;;2.60;;
20229;SDS011;12195;55.790;37.572;2023-05-07T00:26:12;5.35;;;2.30;;
20229;SDS011;12195;55.790;37.572;2023-05-07T00:28:45;5.62;;;2.45;;
20229;SDS011;12195;55.790;37.572;2023-05-07T00:31:17;3.08;;;2.47;;
20229;SDS011;12195;55.790;37.572;2023-05-07T00:33:50;4.30;;;2.45;;
20229;SDS011;12195;55.790;37.572;2023-05-07T00:36:22;6.30;;;2.15;;
20229;SDS011;12195;55.790;37.572;2023-05-07T00:38:54;4.45;;;2.65;;
20229;SDS011;12195;55.790;37.572;2023-05-07T00:41:29;5.50;;;2.47;;
20229;SDS011;12195;55.790;37.572;2023-05-07T00:44:01;3.87;;;2.17;;
20229;SDS011;12195;55.790;37.572;2023-05-07T00:46:33;4.55;;;2.55;;
20229;SDS011;12195;55.790;37.572;2023-05-07T00:49:06;3.12;;;2.37;;
20229;SDS011;12195;55.790;37.572;2023-05-07T00:51:38;6.08;;;2.92;;
20229;SDS011;12195;55.790;37.572;2023-05-07T00:54:11;3.30;;;2.60;;
20229;SDS011;12195;55.790;37.572;2023-05-07T00:56:44;5.30;;;2.50;;
20229;SDS011;12195;55.790;37.572;2023-05-07T00:59:16;4.95;;;2.70;;
20229;SDS011;12195;55.790;37.572;2023-05-07T01:01:48;6.00;;;2.55;;
20229;SDS011;12195;55.790;37.572;2023-05-07T01:04:20;7.92;;;2.70;;
20229;SDS011;12195;55.790;37.572;2023-05-07T01:06:56;2.90;;;2.37;;
20229;SDS011;12195;55.790;37.572;2023-05-07T01:09:31;8.15;;;2.33;;
20229;SDS011;12195;55.790;37.572;2023-05-07T01:14:37;5.78;;;2.25;;
20229;SDS011;12195;55.790;37.572;2023-05-07T01:17:09;4.12;;;2.35;;
20229;SDS011;12195;55.790;37.572;2023-05-07T01:19:42;5.33;;;2.70;;
20229;SDS011;12195;55.790;37.572;2023-05-07T01:22:14;8.23;;;2.58;;
20229;SDS011;12195;55.790;37.572;2023-05-07T01:24:49;5.35;;;2.80;;
20229;SDS011;12195;55.790;37.572;2023-05-07T01:27:21;6.33;;;2.83;;
20229;SDS011;12195;55.790;37.572;2023-05-07T01:29:54;3.75;;;2.10;;
20229;SDS011;12195;55.790;37.572;2023-05-07T01:35:26;5.62;;;2.70;;
20229;SDS011;12195;55.790;37.572;2023-05-07T01:38:00;3.87;;;2.08;;
20229;SDS011;12195;55.790;37.572;2023-05-07T01:40:35;8.90;;;3.05;;
20229;SDS011;12195;55.790;37.572;2023-05-07T01:43:07;4.87;;;3.12;;
20229;SDS011;12195;55.790;37.572;2023-05-07T01:45:42;7.25;;;2.70;;
20229;SDS011;12195;55.790;37.572;2023-05-07T01:48:14;3.92;;;2.72;;
20229;SDS011;12195;55.790;37.572;2023-05-07T01:50:47;5.67;;;3.00;;
20229;SDS011;12195;55.790;37.572;2023-05-07T01:53:20;6.30;;;3.40;;
20229;SDS011;12195;55.790;37.572;2023-05-07T01:55:52;5.28;;;2.62;;
20229;SDS011;12195;55.790;37.572;2023-05-07T01:58:25;4.53;;;3.17;;
20229;SDS011;12195;55.790;37.572;2023-05-07T02:00:57;7.00;;;3.80;;
20229;SDS011;12195;55.790;37.572;2023-05-07T02:03:30;6.75;;;3.45;;
20229;SDS011;12195;55.790;37.572;2023-05-07T02:06:04;7.22;;;4.40;;
20229;SDS011;12195;55.790;37.572;2023-05-07T02:08:38;6.28;;;3.72;;
20229;SDS011;12195;55.790;37.572;2023-05-07T02:11:12;6.12;;;3.58;;
20229;SDS011;12195;55.790;37.572;2023-05-07T02:13:44;5.87;;;3.65;;
20229;SDS011;12195;55.790;37.572;2023-05-07T02:16:16;6.42;;;3.42;;
20229;SDS011;12195;55.790;37.572;2023-05-07T02:18:49;7.10;;;3.10;;
20229;SDS011;12195;55.790;37.572;2023-05-07T02:21:22;6.55;;;3.00;;
20229;SDS011;12195;55.790;37.572;2023-05-07T02:23:54;4.05;;;2.75;;
20229;SDS011;12195;55.790;37.572;2023-05-07T02:26:27;5.53;;;3.60;;
20229;SDS011;12195;55.790;37.572;2023-05-07T02:28:59;4.60;;;3.70;;
20229;SDS011;12195;55.790;37.572;2023-05-07T02:31:31;6.47;;;3.33;;
20229;SDS011;12195;55.790;37.572;2023-05-07T02:34:06;5.85;;;3.98;;
20229;SDS011;12195;55.790;37.572;2023-05-07T02:36:38;6.30;;;4.03;;
20229;SDS011;12195;55.790;37.572;2023-05-07T02:39:12;7.42;;;4.00;;
20229;SDS011;12195;55.790;37.572;2023-05-07T02:41:45;6.50;;;4.53;;
20229;SDS011;12195;55.790;37.572;2023-05-07T02:44:18;10.20;;;6.55;;
20229;SDS011;12195;55.790;37.572;2023-05-07T02:46:51;5.85;;;4.80;;
20229;SDS011;12195;55.790;37.572;2023-05-07T02:49:24;9.05;;;4.28;;
20229;SDS011;12195;55.790;37.572;2023-05-07T02:51:56;8.15;;;4.58;;
20229;SDS011;12195;55.790;37.572;2023-05-07T02:54:28;5.22;;;3.80;;
20229;SDS011;12195;55.790;37.572;2023-05-07T02:57:01;5.60;;;4.00;;
20229;SDS011;12195;55.790;37.572;2023-05-07T02:59:33;6.50;;;4.20;;
20229;SDS011;12195;55.790;37.572;2023-05-07T03:02:06;7.80;;;3.85;;
20229;SDS011;12195;55.790;37.572;2023-05-07T03:04:39;10.78;;;4.22;;
20229;SDS011;12195;55.790;37.572;2023-05-07T03:07:11;7.03;;;4.20;;
20229;SDS011;12195;55.790;37.572;2023-05-07T03:09:44;7.55;;;3.72;;
20229;SDS011;12195;55.790;37.572;2023-05-07T03:12:16;5.00;;;3.20;;
20229;SDS011;12195;55.790;37.572;2023-05-07T03:14:48;7.22;;;3.77;;
20229;SDS011;12195;55.790;37.572;2023-05-07T03:17:21;9.10;;;3.60;;
20229;SDS011;12195;55.790;37.572;2023-05-07T03:19:53;10.03;;;3.87;;
20229;SDS011;12195;55.790;37.572;2023-05-07T03:22:26;5.35;;;3.22;;
20229;SDS011;12195;55.790;37.572;2023-05-07T03:24:59;5.45;;;3.12;;
20229;SDS011;12195;55.790;37.572;2023-05-07T03:27:33;7.30;;;3.25;;
20229;SDS011;12195;55.790;37.572;2023-05-07T03:30:06;5.92;;;3.42;;
20229;SDS011;12195;55.790;37.572;2023-05-07T03:32:39;7.50;;;3.13;;
20229;SDS011;12195;55.790;37.572;2023-05-07T03:35:12;5.67;;;3.27;;
20229;SDS011;12195;55.790;37.572;2023-05-07T03:37:45;4.42;;;2.40;;
20229;SDS011;12195;55.790;37.572;2023-05-07T03:40:17;4.35;;;2.40;;
20229;SDS011;12195;55.790;37.572;2023-05-07T03:42:51;5.90;;;3.50;;
20229;SDS011;12195;55.790;37.572;2023-05-07T03:45:25;3.98;;;2.50;;
20229;SDS011;12195;55.790;37.572;2023-05-07T03:48:05;5.85;;;2.67;;
20229;SDS011;12195;55.790;37.572;2023-05-07T03:50:37;4.00;;;2.58;;
20229;SDS011;12195;55.790;37.572;2023-05-07T03:53:10;4.55;;;2.47;;
20229;SDS011;12195;55.790;37.572;2023-05-07T03:55:42;3.27;;;2.33;;
20229;SDS011;12195;55.790;37.572;2023-05-07T03:58:15;4.47;;;1.95;;
20229;SDS011;12195;55.790;37.572;2023-05-07T04:00:48;4.15;;;2.67;;
20229;SDS011;12195;55.790;37.572;2023-05-07T04:03:22;6.55;;;2.30;;
20229;SDS011;12195;55.790;37.572;2023-05-07T04:05:54;4.42;;;1.98;;
20229;SDS011;12195;55.790;37.572;2023-05-07T04:08:27;5.28;;;2.52;;
20229;SDS011;12195;55.790;37.572;2023-05-07T04:10:59;4.50;;;2.33;;
20229;SDS011;12195;55.790;37.572;2023-05-07T04:13:33;4.03;;;2.12;;
20229;SDS011;12195;55.790;37.572;2023-05-07T04:16:07;3.20;;;2.02;;
20229;SDS011;12195;55.790;37.572;2023-05-07T04:18:40;4.17;;;2.45;;
20229;SDS011;12195;55.790;37.572;2023-05-07T04:21:15;6.15;;;2.52;;
20229;SDS011;12195;55.790;37.572;2023-05-07T04:23:50;5.17;;;2.77;;
20229;SDS011;12195;55.790;37.572;2023-05-07T04:26:22;3.92;;;2.35;;
20229;SDS011;12195;55.790;37.572;2023-05-07T04:28:54;11.05;;;2.67;;
20229;SDS011;12195;55.790;37.572;2023-05-07T04:31:30;5.78;;;2.27;;
20229;SDS011;12195;55.790;37.572;2023-05-07T04:34:02;2.80;;;2.00;;
20229;SDS011;12195;55.790;37.572;2023-05-07T04:36:34;3.55;;;1.92;;
20229;SDS011;12195;55.790;37.572;2023-05-07T04:39:08;8.35;;;1.85;;
20229;SDS011;12195;55.790;37.572;2023-05-07T04:41:41;3.52;;;2.02;;
20229;SDS011;12195;55.790;37.572;2023-05-07T04:44:14;5.83;;;2.30;;
20229;SDS011;12195;55.790;37.572;2023-05-07T04:46:47;2.90;;;2.12;;
20229;SDS011;12195;55.790;37.572;2023-05-07T04:49:19;4.55;;;1.77;;
20229;SDS011;12195;55.790;37.572;2023-05-07T04:51:52;2.90;;;1.82;;
20229;SDS011;12195;55.790;37.572;2023-05-07T04:54:24;8.23;;;2.10;;
20229;SDS011;12195;55.790;37.572;2023-05-07T04:56:56;6.28;;;2.08;;
20229;SDS011;12195;55.790;37.572;2023-05-07T04:59:29;2.05;;;1.50;;
20229;SDS011;12195;55.790;37.572;2023-05-07T05:02:01;3.80;;;1.62;;
20229;SDS011;12195;55.790;37.572;2023-05-07T05:04:34;4.92;;;2.87;;
20229;SDS011;12195;55.790;37.572;2023-05-07T05:07:07;1.70;;;1.30;;
20229;SDS011;12195;55.790;37.572;2023-05-07T05:09:39;2.05;;;1.30;;
20229;SDS011;12195;55.790;37.572;2023-05-07T05:12:12;5.90;;;1.45;;
20229;SDS011;12195;55.790;37.572;2023-05-07T05:14:44;3.55;;;1.60;;
20229;SDS011;12195;55.790;37.572;2023-05-07T05:17:17;6.25;;;2.70;;
20229;SDS011;12195;55.790;37.572;2023-05-07T05:19:50;1.60;;;1.50;;
20229;SDS011;12195;55.790;37.572;2023-05-07T05:22:22;1.82;;;1.05;;
20229;SDS011;12195;55.790;37.572;2023-05-07T05:24:56;3.05;;;1.70;;
20229;SDS011;12195;55.790;37.572;2023-05-07T05:27:30;2.37;;;1.50;;
20229;SDS011;12195;55.790;37.572;2023-05-07T05:30:03;2.60;;;1.45;;
20229;SDS011;12195;55.790;37.572;2023-05-07T05:32:36;1.65;;;1.07;;
20229;SDS011;12195;55.790;37.572;2023-05-07T05:35:09;3.30;;;0.93;;
20229;SDS011;12195;55.790;37.572;2023-05-07T05:37:42;2.27;;;1.65;;
20229;SDS011;12195;55.790;37.572;2023-05-07T05:40:14;2.45;;;1.45;;
20229;SDS011;12195;55.790;37.572;2023-05-07T05:42:48;5.33;;;1.75;;
20229;SDS011;12195;55.790;37.572;2023-05-07T05:45:20;1.62;;;1.12;;
20229;SDS011;12195;55.790;37.572;2023-05-07T05:47:53;3.87;;;1.65;;
20229;SDS011;12195;55.790;37.572;2023-05-07T05:50:27;4.03;;;1.50;;
20229;SDS011;12195;55.790;37.572;2023-05-07T05:53:01;2.50;;;1.55;;
20229;SDS011;12195;55.790;37.572;2023-05-07T05:55:34;2.35;;;1.37;;
20229;SDS011;12195;55.790;37.572;2023-05-07T05:58:06;1.32;;;1.20;;
20229;SDS011;12195;55.790;37.572;2023-05-07T06:00:41;1.20;;;0.98;;
20229;SDS011;12195;55.790;37.572;2023-05-07T06:03:13;3.25;;;1.77;;
20229;SDS011;12195;55.790;37.572;2023-05-07T06:05:46;5.33;;;1.40;;
20229;SDS011;12195;55.790;37.572;2023-05-07T06:08:20;1.62;;;1.10;;
20229;SDS011;12195;55.790;37.572;2023-05-07T06:10:52;3.12;;;1.30;;
20229;SDS011;12195;55.790;37.572;2023-05-07T06:13:24;1.87;;;1.20;;
20229;SDS011;12195;55.790;37.572;2023-05-07T06:15:58;4.97;;;1.30;;
20229;SDS011;12195;55.790;37.572;2023-05-07T06:18:31;3.97;;;1.70;;
20229;SDS011;12195;55.790;37.572;2023-05-07T06:23:37;4.50;;;1.87;;
20229;SDS011;12195;55.790;37.572;2023-05-07T06:26:11;4.35;;;1.12;;
20229;SDS011;12195;55.790;37.572;2023-05-07T06:28:45;3.42;;;1.05;;
20229;SDS011;12195;55.790;37.572;2023-05-07T06:31:18;3.30;;;0.93;;
20229;SDS011;12195;55.790;37.572;2023-05-07T06:33:53;6.12;;;1.45;;
20229;SDS011;12195;55.790;37.572;2023-05-07T06:36:28;2.92;;;1.62;;
20229;SDS011;12195;55.790;37.572;2023-05-07T06:39:00;3.85;;;1.22;;
20229;SDS011;12195;55.790;37.572;2023-05-07T06:41:33;3.12;;;1.50;;
20229;SDS011;12195;55.790;37.572;2023-05-07T06:44:07;4.67;;;1.42;;
20229;SDS011;12195;55.790;37.572;2023-05-07T06:49:13;5.00;;;1.35;;
20229;SDS011;12195;55.790;37.572;2023-05-07T06:51:46;3.50;;;1.10;;
20229;SDS011;12195;55.790;37.572;2023-05-07T06:54:19;1.10;;;0.75;;
20229;SDS011;12195;55.790;37.572;2023-05-07T06:56:53;1.12;;;0.85;;
20229;SDS011;12195;55.790;37.572;2023-05-07T06:59:27;3.30;;;0.80;;
20229;SDS011;12195;55.790;37.572;2023-05-07T07:01:59;2.60;;;0.95;;
20229;SDS011;12195;55.790;37.572;2023-05-07T07:04:32;2.00;;;1.12;;
20229;SDS011;12195;55.790;37.572;2023-05-07T07:07:05;4.85;;;1.12;;
20229;SDS011;12195;55.790;37.572;2023-05-07T07:09:38;1.90;;;1.15;;
20229;SDS011;12195;55.790;37.572;2023-05-07T07:12:11;5.97;;;1.30;;
20229;SDS011;12195;55.790;37.572;2023-05-07T07:14:44;1.82;;;0.93;;
20229;SDS011;12195;55.790;37.572;2023-05-07T07:17:16;2.47;;;1.22;;
20229;SDS011;12195;55.790;37.572;2023-05-07T07:19:49;2.08;;;0.90;;
20229;SDS011;12195;55.790;37.572;2023-05-07T07:22:21;3.22;;;1.25;;
20229;SDS011;12195;55.790;37.572;2023-05-07T07:24:54;1.30;;;1.05;;
20229;SDS011;12195;55.790;37.572;2023-05-07T07:27:26;0.80;;;0.78;;
20229;SDS011;12195;55.790;37.572;2023-05-07T07:29:58;1.42;;;0.70;;
20229;SDS011;12195;55.790;37.572;2023-05-07T07:32:32;1.22;;;0.85;;
20229;SDS011;12195;55.790;37.572;2023-05-07T07:35:06;0.60;;;0.60;;
20229;SDS011;12195;55.790;37.572;2023-05-07T07:37:40;0.80;;;0.60;;
20229;SDS011;12195;55.790;37.572;2023-05-07T07:40:12;0.80;;;0.68;;
20229;SDS011;12195;55.790;37.572;2023-05-07T07:42:47;1.52;;;0.90;;
20229;SDS011;12195;55.790;37.572;2023-05-07T07:45:19;1.42;;;0.93;;
20229;SDS011;12195;55.790;37.572;2023-05-07T07:47:52;1.10;;;0.93;;
20229;SDS011;12195;55.790;37.572;2023-05-07T07:50:25;6.35;;;2.00;;
20229;SDS011;12195;55.790;37.572;2023-05-07T07:53:00;3.60;;;0.90;;
20229;SDS011;12195;55.790;37.572;2023-05-07T07:55:37;2.50;;;1.30;;
20229;SDS011;12195;55.790;37.572;2023-05-07T07:58:12;5.75;;;0.93;;
20229;SDS011;12195;55.790;37.572;2023-05-07T08:00:45;2.67;;;1.22;;
20229;SDS011;12195;55.790;37.572;2023-05-07T08:03:18;1.10;;;0.90;;
20229;SDS011;12195;55.790;37.572;2023-05-07T08:05:52;4.00;;;1.20;;
20229;SDS011;12195;55.790;37.572;2023-05-07T08:08:24;3.58;;;0.85;;
20229;SDS011;12195;55.790;37.572;2023-05-07T08:10:57;2.75;;;1.20;;
20229;SDS011;12195;55.790;37.572;2023-05-07T08:13:31;1.47;;;0.90;;
20229;SDS011;12195;55.790;37.572;2023-05-07T08:16:04;4.00;;;0.85;;
20229;SDS011;12195;55.790;37.572;2023-05-07T08:18:38;0.75;;;0.65;;
20229;SDS011;12195;55.790;37.572;2023-05-07T08:21:11;1.70;;;0.62;;
20229;SDS011;12195;55.790;37.572;2023-05-07T08:23:45;1.55;;;0.90;;
20229;SDS011;12195;55.790;37.572;2023-05-07T08:26:17;0.60;;;0.60;;
20229;SDS011;12195;55.790;37.572;2023-05-07T08:28:50;0.72;;;0.60;;
20229;SDS011;12195;55.790;37.572;2023-05-07T08:31:23;2.00;;;0.80;;
20229;SDS011;12195;55.790;37.572;2023-05-07T08:33:56;1.40;;;0.68;;
20229;SDS011;12195;55.790;37.572;2023-05-07T08:36:29;1.20;;;0.98;;
20229;SDS011;12195;55.790;37.572;2023-05-07T08:39:02;0.80;;;0.75;;
20229;SDS011;12195;55.790;37.572;2023-05-07T08:41:34;2.25;;;0.80;;
20229;SDS011;12195;55.790;37.572;2023-05-07T08:44:11;2.58;;;1.00;;
20229;SDS011;12195;55.790;37.572;2023-05-07T08:46:45;1.67;;;0.90;;
20229;SDS011;12195;55.790;37.572;2023-05-07T08:51:52;1.82;;;1.00;;
20229;SDS011;12195;55.790;37.572;2023-05-07T08:54:26;1.52;;;1.00;;
20229;SDS011;12195;55.790;37.572;2023-05-07T08:57:02;2.47;;;0.72;;
20229;SDS011;12195;55.790;37.572;2023-05-07T08:59:34;2.65;;;1.02;;
20229;SDS011;12195;55.790;37.572;2023-05-07T09:02:07;2.42;;;1.15;;
20229;SDS011;12195;55.790;37.572;2023-05-07T09:04:42;3.08;;;1.00;;
20229;SDS011;12195;55.790;37.572;2023-05-07T09:07:15;4.37;;;1.30;;
20229;SDS011;12195;55.790;37.572;2023-05-07T09:09:47;14.68;;;1.80;;
20229;SDS011;12195;55.790;37.572;2023-05-07T09:12:21;2.65;;;0.90;;
20229;SDS011;12195;55.790;37.572;2023-05-07T09:14:54;1.40;;;0.70;;
20229;SDS011;12195;55.790;37.572;2023-05-07T09:17:27;3.22;;;1.05;;
20229;SDS011;12195;55.790;37.572;2023-05-07T09:20:03;1.20;;;0.80;;
20229;SDS011;12195;55.790;37.572;2023-05-07T09:22:38;2.27;;;0.62;;
20229;SDS011;12195;55.790;37.572;2023-05-07T09:25:14;1.85;;;0.53;;
20229;SDS011;12195;55.790;37.572;2023-05-07T09:27:47;2.87;;;0.98;;
20229;SDS011;12195;55.790;37.572;2023-05-07T09:30:19;3.50;;;1.30;;
20229;SDS011;12195;55.790;37.572;2023-05-07T09:32:52;1.32;;;0.90;;
20229;SDS011;12195;55.790;37.572;2023-05-07T09:35:25;7.87;;;1.12;;
20229;SDS011;12195;55.790;37.572;2023-05-07T09:38:00;2.95;;;0.88;;
20229;SDS011;12195;55.790;37.572;2023-05-07T09:40:34;3.65;;;1.30;;
20229;SDS011;12195;55.790;37.572;2023-05-07T09:43:09;1.77;;;0.90;;
20229;SDS011;12195;55.790;37.572;2023-05-07T09:45:43;1.62;;;0.70;;
20229;SDS011;12195;55.790;37.572;2023-05-07T09:48:16;1.92;;;0.80;;
20229;SDS011;12195;55.790;37.572;2023-05-07T09:50:51;3.08;;;1.37;;
20229;SDS011;12195;55.790;37.572;2023-05-07T09:53:26;3.10;;;1.30;;
20229;SDS011;12195;55.790;37.572;2023-05-07T09:56:02;2.08;;;0.80;;
20229;SDS011;12195;55.790;37.572;2023-05-07T10:01:08;3.20;;;1.45;;
20229;SDS011;12195;55.790;37.572;2023-05-07T10:03:44;1.45;;;0.70;;
20229;SDS011;12195;55.790;37.572;2023-05-07T10:06:18;5.53;;;1.47;;
20229;SDS011;12195;55.790;37.572;2023-05-07T10:08:51;1.12;;;0.80;;
20229;SDS011;12195;55.790;37.572;2023-05-07T10:11:24;0.72;;;0.70;;
20229;SDS011;12195;55.790;37.572;2023-05-07T10:13:57;1.67;;;1.20;;
20229;SDS011;12195;55.790;37.572;2023-05-07T10:19:09;6.28;;;1.02;;
20229;SDS011;12195;55.790;37.572;2023-05-07T10:21:48;1.30;;;0.75;;
20229;SDS011;12195;55.790;37.572;2023-05-07T10:24:29;0.62;;;0.62;;
20229;SDS011;12195;55.790;37.572;2023-05-07T10:27:09;4.65;;;1.25;;
20229;SDS011;12195;55.790;37.572;2023-05-07T10:32:47;4.12;;;0.88;;
20229;SDS011;12195;55.790;37.572;2023-05-07T10:35:19;2.52;;;1.17;;
20229;SDS011;12195;55.790;37.572;2023-05-07T10:37:55;5.22;;;1.30;;
20229;SDS011;12195;55.790;37.572;2023-05-07T10:40:29;1.77;;;0.90;;
20229;SDS011;12195;55.790;37.572;2023-05-07T10:43:03;4.15;;;1.10;;
20229;SDS011;12195;55.790;37.572;2023-05-07T10:45:39;2.80;;;0.90;;
20229;SDS011;12195;55.790;37.572;2023-05-07T10:48:12;1.62;;;1.00;;
20229;SDS011;12195;55.790;37.572;2023-05-07T10:50:51;5.37;;;1.62;;
20229;SDS011;12195;55.790;37.572;2023-05-07T10:53:26;2.33;;;0.90;;
20229;SDS011;12195;55.790;37.572;2023-05-07T10:56:25;1.12;;;0.88;;
20229;SDS011;12195;55.790;37.572;2023-05-07T10:58:39;1.35;;;1.17;;
20229;SDS011;12195;55.790;37.572;2023-05-07T11:01:14;1.57;;;0.88;;
20229;SDS011;12195;55.790;37.572;2023-05-07T11:10:00;6.33;;;1.20;;
20229;SDS011;12195;55.790;37.572;2023-05-07T11:15:35;2.02;;;1.00;;
20229;SDS011;12195;55.790;37.572;2023-05-07T11:18:22;1.87;;;0.95;;
20229;SDS011;12195;55.790;37.572;2023-05-07T11:20:56;1.37;;;0.75;;
20229;SDS011;12195;55.790;37.572;2023-05-07T11:26:15;1.87;;;0.88;;
20229;SDS011;12195;55.790;37.572;2023-05-07T11:28:48;5.03;;;1.37;;
20229;SDS011;12195;55.790;37.572;2023-05-07T11:31:22;5.25;;;1.37;;
20229;SDS011;12195;55.790;37.572;2023-05-07T11:34:01;3.20;;;1.35;;
20229;SDS011;12195;55.790;37.572;2023-05-07T11:36:35;2.90;;;1.10;;
20229;SDS011;12195;55.790;37.572;2023-05-07T11:39:29;4.62;;;1.32;;
20229;SDS011;12195;55.790;37.572;2023-05-07T11:42:05;2.87;;;1.17;;
20229;SDS011;12195;55.790;37.572;2023-05-07T11:44:46;1.10;;;0.90;;
20229;SDS011;12195;55.790;37.572;2023-05-07T11:47:19;3.50;;;1.30;;
20229;SDS011;12195;55.790;37.572;2023-05-07T11:49:53;3.37;;;1.20;;
20229;SDS011;12195;55.790;37.572;2023-05-07T11:52:25;1.70;;;0.60;;
20229;SDS011;12195;55.790;37.572;2023-05-07T11:54:59;0.55;;;0.55;;
20229;SDS011;12195;55.790;37.572;2023-05-07T11:57:34;4.12;;;1.20;;
20229;SDS011;12195;55.790;37.572;2023-05-07T12:00:07;1.07;;;0.75;;
20229;SDS011;12195;55.790;37.572;2023-05-07T12:02:43;3.85;;;1.17;;
20229;SDS011;12195;55.790;37.572;2023-05-07T12:05:17;7.55;;;1.10;;
20229;SDS011;12195;55.790;37.572;2023-05-07T12:07:55;1.40;;;0.80;;
20229;SDS011;12195;55.790;37.572;2023-05-07T12:10:25;3.20;;;1.07;;
20229;SDS011;12195;55.790;37.572;2023-05-07T12:12:57;4.35;;;0.90;;
20229;SDS011;12195;55.790;37.572;2023-05-07T12:15:30;5.90;;;1.87;;
20229;SDS011;12195;55.790;37.572;2023-05-07T12:18:03;4.50;;;1.67;;
20229;SDS011;12195;55.790;37.572;2023-05-07T12:20:36;5.42;;;1.60;;
20229;SDS011;12195;55.790;37.572;2023-05-07T12:23:08;4.50;;;1.20;;
20229;SDS011;12195;55.790;37.572;2023-05-07T12:25:42;3.95;;;1.15;;
20229;SDS011;12195;55.790;37.572;2023-05-07T12:28:17;7.42;;;1.75;;
20229;SDS011;12195;55.790;37.572;2023-05-07T12:30:50;4.40;;;1.32;;
20229;SDS011;12195;55.790;37.572;2023-05-07T12:33:24;2.37;;;0.90;;
20229;SDS011;12195;55.790;37.572;2023-05-07T12:36:02;3.10;;;0.80;;
20229;SDS011;12195;55.790;37.572;2023-05-07T12:38:37;4.50;;;1.00;;
20229;SDS011;12195;55.790;37.572;2023-05-07T12:41:11;3.92;;;1.25;;
20229;SDS011;12195;55.790;37.572;2023-05-07T12:43:46;4.05;;;1.05;;
20229;SDS011;12195;55.790;37.572;2023-05-07T12:46:18;3.67;;;1.10;;
20229;SDS011;12195;55.790;37.572;2023-05-07T12:48:51;3.75;;;1.35;;
20229;SDS011;12195;55.790;37.572;2023-05-07T12:51:24;10.43;;;2.63;;
20229;SDS011;12195;55.790;37.572;2023-05-07T12:53:58;3.80;;;1.50;;
20229;SDS011;12195;55.790;37.572;2023-05-07T12:56:31;6.67;;;1.40;;
20229;SDS011;12195;55.790;37.572;2023-05-07T12:59:05;2.17;;;1.10;;
20229;SDS011;12195;55.790;37.572;2023-05-07T13:01:37;2.45;;;0.80;;
20229;SDS011;12195;55.790;37.572;2023-05-07T13:04:09;1.87;;;0.65;;
20229;SDS011;12195;55.790;37.572;2023-05-07T13:06:41;3.98;;;1.20;;
20229;SDS011;12195;55.790;37.572;2023-05-07T13:09:14;3.02;;;1.30;;
20229;SDS011;12195;55.790;37.572;2023-05-07T13:11:46;2.20;;;1.02;;
20229;SDS011;12195;55.790;37.572;2023-05-07T13:14:18;4.25;;;1.20;;
20229;SDS011;12195;55.790;37.572;2023-05-07T13:16:51;4.95;;;1.05;;
20229;SDS011;12195;55.790;37.572;2023-05-07T13:19:23;3.12;;;1.00;;
20229;SDS011;12195;55.790;37.572;2023-05-07T13:21:56;7.08;;;1.98;;
20229;SDS011;12195;55.790;37.572;2023-05-07T13:24:29;2.98;;;1.05;;
20229;SDS011;12195;55.790;37.572;2023-05-07T13:27:01;10.93;;;1.90;;
20229;SDS011;12195;55.790;37.572;2023-05-07T13:29:33;3.90;;;1.17;;
20229;SDS011;12195;55.790;37.572;2023-05-07T13:32:05;2.62;;;0.90;;
20229;SDS011;12195;55.790;37.572;2023-05-07T13:34:38;3.60;;;1.02;;
20229;SDS011;12195;55.790;37.572;2023-05-07T13:37:10;3.30;;;1.25;;
20229;SDS011;12195;55.790;37.572;2023-05-07T13:39:42;3.65;;;0.93;;
20229;SDS011;12195;55.790;37.572;2023-05-07T13:42:16;5.58;;;1.10;;
20229;SDS011;12195;55.790;37.572;2023-05-07T13:44:48;4.33;;;1.32;;
20229;SDS011;12195;55.790;37.572;2023-05-07T13:47:20;5.70;;;1.30;;
20229;SDS011;12195;55.790;37.572;2023-05-07T13:49:54;4.58;;;1.12;;
20229;SDS011;12195;55.790;37.572;2023-05-07T13:52:26;2.72;;;1.25;;
20229;SDS011;12195;55.790;37.572;2023-05-07T13:54:58;6.67;;;1.37;;
20229;SDS011;12195;55.790;37.572;2023-05-07T13:57:31;5.97;;;1.60;;
20229;SDS011;12195;55.790;37.572;2023-05-07T14:00:03;6.25;;;2.75;;
20229;SDS011;12195;55.790;37.572;2023-05-07T14:02:38;7.03;;;1.70;;
20229;SDS011;12195;55.790;37.572;2023-05-07T14:05:11;4.10;;;1.32;;
20229;SDS011;12195;55.790;37.572;2023-05-07T14:07:43;14.87;;;1.40;;
20229;SDS011;12195;55.790;37.572;2023-05-07T14:10:16;4.85;;;2.50;;
20229;SDS011;12195;55.790;37.572;2023-05-07T14:12:48;4.00;;;1.05;;
20229;SDS011;12195;55.790;37.572;2023-05-07T14:15:21;2.65;;;0.98;;
20229;SDS011;12195;55.790;37.572;2023-05-07T14:17:53;4.97;;;1.20;;
20229;SDS011;12195;55.790;37.572;2023-05-07T14:20:25;4.10;;;1.62;;
20229;SDS011;12195;55.790;37.572;2023-05-07T14:22:58;2.95;;;0.90;;
20229;SDS011;12195;55.790;37.572;2023-05-07T14:25:30;0.80;;;0.55;;
20229;SDS011;12195;55.790;37.572;2023-05-07T14:28:02;5.25;;;1.10;;
20229;SDS011;12195;55.790;37.572;2023-05-07T14:30:36;3.77;;;1.52;;
20229;SDS011;12195;55.790;37.572;2023-05-07T14:33:09;4.33;;;1.45;;
20229;SDS011;12195;55.790;37.572;2023-05-07T14:35:42;3.80;;;1.20;;
20229;SDS011;12195;55.790;37.572;2023-05-07T14:38:16;3.67;;;1.40;;
20229;SDS011;12195;55.790;37.572;2023-05-07T14:40:49;1.90;;;1.07;;
20229;SDS011;12195;55.790;37.572;2023-05-07T14:43:22;3.00;;;1.37;;
20229;SDS011;12195;55.790;37.572;2023-05-07T14:45:54;3.15;;;1.00;;
20229;SDS011;12195;55.790;37.572;2023-05-07T14:48:26;3.37;;;1.10;;
20229;SDS011;12195;55.790;37.572;2023-05-07T14:50:59;3.10;;;1.10;;
20229;SDS011;12195;55.790;37.572;2023-05-07T14:53:31;7.33;;;1.70;;
20229;SDS011;12195;55.790;37.572;2023-05-07T14:56:03;3.65;;;1.32;;
20229;SDS011;12195;55.790;37.572;2023-05-07T14:58:35;7.62;;;1.60;;
20229;SDS011;12195;55.790;37.572;2023-05-07T15:01:08;12.37;;;2.30;;
20229;SDS011;12195;55.790;37.572;2023-05-07T15:03:40;2.02;;;1.17;;
20229;SDS011;12195;55.790;37.572;2023-05-07T15:06:13;2.80;;;1.37;;
20229;SDS011;12195;55.790;37.572;2023-05-07T15:08:46;2.72;;;1.15;;
20229;SDS011;12195;55.790;37.572;2023-05-07T15:11:19;4.92;;;1.75;;
20229;SDS011;12195;55.790;37.572;2023-05-07T15:13:52;3.83;;;1.42;;
20229;SDS011;12195;55.790;37.572;2023-05-07T15:16:24;5.37;;;1.37;;
20229;SDS011;12195;55.790;37.572;2023-05-07T15:18:56;3.35;;;1.20;;
20229;SDS011;12195;55.790;37.572;2023-05-07T15:21:29;6.83;;;1.42;;
20229;SDS011;12195;55.790;37.572;2023-05-07T15:24:03;1.90;;;1.25;;
20229;SDS011;12195;55.790;37.572;2023-05-07T15:26:35;10.88;;;2.02;;
20229;SDS011;12195;55.790;37.572;2023-05-07T15:29:07;7.20;;;1.80;;
20229;SDS011;12195;55.790;37.572;2023-05-07T15:31:40;3.33;;;1.70;;
20229;SDS011;12195;55.790;37.572;2023-05-07T15:34:13;6.17;;;1.87;;
20229;SDS011;12195;55.790;37.572;2023-05-07T15:36:48;10.48;;;1.87;;
20229;SDS011;12195;55.790;37.572;2023-05-07T15:39:20;2.37;;;1.22;;
20229;SDS011;12195;55.790;37.572;2023-05-07T15:41:54;1.10;;;0.82;;
20229;SDS011;12195;55.790;37.572;2023-05-07T15:44:26;12.00;;;2.08;;